sensor_id;sensor_type;location;lat;lon;timestamp;P1;durP1;ratioP1;P2;durP2;ratioP2
32399;SDS011;45045;45.440;9.178;2023-02-15T00:01:39;81.78;;;49.28;;
32399;SDS011;45045;45.440;9.178;2023-02-15T00:04:06;88.07;;;50.30;;
32399;SDS011;45045;45.440;9.178;2023-02-15T00:06:33;86.38;;;49.30;;
32399;SDS011;45045;45.440;9.178;2023-02-15T00:09:02;86.72;;;50.67;;
32399;SDS011;45045;45.440;9.178;2023-02-15T00:11:28;89.93;;;51.67;;
32399;SDS011;45045;45.440;9.178;2023-02-15T00:14:14;87.60;;;49.40;;
32399;SDS011;45045;45.440;9.178;2023-02-15T00:16:48;83.80;;;49.25;;
32399;SDS011;45045;45.440;9.178;2023-02-15T00:19:18;86.03;;;51.33;;
32399;SDS011;45045;45.440;9.178;2023-02-15T00:21:46;84.70;;;48.85;;
32399;SDS011;45045;45.440;9.178;2023-02-15T00:24:14;81.68;;;49.67;;
32399;SDS011;45045;45.440;9.178;2023-02-15T00:26:41;86.72;;;50.33;;
32399;SDS011;45045;45.440;9.178;2023-02-15T00:29:08;91.07;;;51.30;;
32399;SDS011;45045;45.440;9.178;2023-02-15T00:31:34;81.43;;;49.55;;
32399;SDS011;45045;45.440;9.178;2023-02-15T00:34:05;86.40;;;48.63;;
32399;SDS011;45045;45.440;9.178;2023-02-15T00:36:47;80.40;;;47.22;;
32399;SDS011;45045;45.440;9.178;2023-02-15T00:39:15;86.47;;;50.42;;
32399;SDS011;45045;45.440;9.178;2023-02-15T00:41:41;82.70;;;47.17;;
32399;SDS011;45045;45.440;9.178;2023-02-15T00:44:07;84.50;;;49.60;;
32399;SDS011;45045;45.440;9.178;2023-02-15T00:46:34;83.30;;;49.88;;
32399;SDS011;45045;45.440;9.178;2023-02-15T00:49:00;84.60;;;49.08;;
32399;SDS011;45045;45.440;9.178;2023-02-15T00:51:26;80.93;;;49.22;;
32399;SDS011;45045;45.440;9.178;2023-02-15T00:53:52;85.70;;;49.92;;
32399;SDS011;45045;45.440;9.178;2023-02-15T00:56:18;81.38;;;48.95;;
32399;SDS011;45045;45.440;9.178;2023-02-15T00:58:44;86.97;;;49.95;;
32399;SDS011;45045;45.440;9.178;2023-02-15T01:01:11;86.55;;;51.35;;
32399;SDS011;45045;45.440;9.178;2023-02-15T01:06:07;82.80;;;47.50;;
32399;SDS011;45045;45.440;9.178;2023-02-15T01:08:34;88.10;;;51.30;;
32399;SDS011;45045;45.440;9.178;2023-02-15T01:11:04;87.85;;;47.95;;
32399;SDS011;45045;45.440;9.178;2023-02-15T01:13:31;89.63;;;49.47;;
32399;SDS011;45045;45.440;9.178;2023-02-15T01:15:57;82.03;;;48.97;;
32399;SDS011;45045;45.440;9.178;2023-02-15T01:18:23;82.78;;;49.78;;
32399;SDS011;45045;45.440;9.178;2023-02-15T01:20:49;83.80;;;50.05;;
32399;SDS011;45045;45.440;9.178;2023-02-15T01:23:14;84.97;;;48.75;;
32399;SDS011;45045;45.440;9.178;2023-02-15T01:25:40;84.15;;;50.33;;
32399;SDS011;45045;45.440;9.178;2023-02-15T01:28:07;81.93;;;50.95;;
32399;SDS011;45045;45.440;9.178;2023-02-15T01:30:32;80.85;;;50.38;;
32399;SDS011;45045;45.440;9.178;2023-02-15T01:32:59;81.45;;;50.80;;
32399;SDS011;45045;45.440;9.178;2023-02-15T01:35:26;79.97;;;49.28;;
32399;SDS011;45045;45.440;9.178;2023-02-15T01:37:52;80.32;;;50.05;;
32399;SDS011;45045;45.440;9.178;2023-02-15T01:40:17;83.47;;;49.10;;
32399;SDS011;45045;45.440;9.178;2023-02-15T01:42:44;82.55;;;49.40;;
32399;SDS011;45045;45.440;9.178;2023-02-15T01:47:53;78.18;;;48.15;;
32399;SDS011;45045;45.440;9.178;2023-02-15T01:50:31;86.10;;;49.65;;
32399;SDS011;45045;45.440;9.178;2023-02-15T01:53:01;81.57;;;49.42;;
32399;SDS011;45045;45.440;9.178;2023-02-15T01:55:30;83.90;;;50.50;;
32399;SDS011;45045;45.440;9.178;2023-02-15T01:57:59;83.30;;;49.35;;
32399;SDS011;45045;45.440;9.178;2023-02-15T02:00:26;88.13;;;48.97;;
32399;SDS011;45045;45.440;9.178;2023-02-15T02:02:53;83.93;;;49.65;;
32399;SDS011;45045;45.440;9.178;2023-02-15T02:05:20;84.80;;;49.80;;
32399;SDS011;45045;45.440;9.178;2023-02-15T02:07:46;86.90;;;51.03;;
32399;SDS011;45045;45.440;9.178;2023-02-15T02:10:17;80.97;;;50.10;;
32399;SDS011;45045;45.440;9.178;2023-02-15T02:12:45;80.55;;;50.42;;
32399;SDS011;45045;45.440;9.178;2023-02-15T02:15:14;84.03;;;51.35;;
32399;SDS011;45045;45.440;9.178;2023-02-15T02:23:24;83.57;;;50.40;;
32399;SDS011;45045;45.440;9.178;2023-02-15T02:47:48;82.03;;;50.75;;
32399;SDS011;45045;45.440;9.178;2023-02-15T02:50:02;84.38;;;51.00;;
32399;SDS011;45045;45.440;9.178;2023-02-15T02:53:04;84.05;;;50.47;;
32399;SDS011;45045;45.440;9.178;2023-02-15T02:55:30;81.70;;;51.28;;
32399;SDS011;45045;45.440;9.178;2023-02-15T02:58:05;84.82;;;51.55;;
32399;SDS011;45045;45.440;9.178;2023-02-15T03:01:13;85.10;;;49.38;;
32399;SDS011;45045;45.440;9.178;2023-02-15T03:03:47;79.85;;;50.47;;
32399;SDS011;45045;45.440;9.178;2023-02-15T03:06:17;85.82;;;52.20;;
32399;SDS011;45045;45.440;9.178;2023-02-15T03:08:49;84.50;;;51.05;;
32399;SDS011;45045;45.440;9.178;2023-02-15T03:11:20;90.40;;;52.28;;
32399;SDS011;45045;45.440;9.178;2023-02-15T03:13:46;85.25;;;50.65;;
32399;SDS011;45045;45.440;9.178;2023-02-15T03:16:13;77.85;;;48.78;;
32399;SDS011;45045;45.440;9.178;2023-02-15T03:21:31;80.20;;;50.03;;
32399;SDS011;45045;45.440;9.178;2023-02-15T03:23:59;84.93;;;50.75;;
32399;SDS011;45045;45.440;9.178;2023-02-15T03:26:32;82.88;;;49.97;;
32399;SDS011;45045;45.440;9.178;2023-02-15T03:28:59;79.82;;;50.60;;
32399;SDS011;45045;45.440;9.178;2023-02-15T03:31:28;81.50;;;48.55;;
32399;SDS011;45045;45.440;9.178;2023-02-15T03:34:01;85.40;;;51.60;;
32399;SDS011;45045;45.440;9.178;2023-02-15T03:41:46;80.78;;;48.85;;
32399;SDS011;45045;45.440;9.178;2023-02-15T03:44:46;82.28;;;49.75;;
32399;SDS011;45045;45.440;9.178;2023-02-15T03:47:26;81.22;;;50.38;;
32399;SDS011;45045;45.440;9.178;2023-02-15T03:50:07;84.03;;;50.75;;
32399;SDS011;45045;45.440;9.178;2023-02-15T03:52:57;80.93;;;51.08;;
32399;SDS011;45045;45.440;9.178;2023-02-15T03:55:26;83.78;;;51.08;;
32399;SDS011;45045;45.440;9.178;2023-02-15T03:57:53;85.05;;;51.72;;
32399;SDS011;45045;45.440;9.178;2023-02-15T04:00:38;80.93;;;50.83;;
32399;SDS011;45045;45.440;9.178;2023-02-15T04:03:33;79.25;;;50.60;;
32399;SDS011;45045;45.440;9.178;2023-02-15T04:06:14;83.32;;;50.88;;
32399;SDS011;45045;45.440;9.178;2023-02-15T04:08:41;84.53;;;51.03;;
32399;SDS011;45045;45.440;9.178;2023-02-15T04:11:25;81.95;;;50.65;;
32399;SDS011;45045;45.440;9.178;2023-02-15T04:13:51;81.70;;;50.45;;
32399;SDS011;45045;45.440;9.178;2023-02-15T04:16:22;81.53;;;49.10;;
32399;SDS011;45045;45.440;9.178;2023-02-15T04:18:48;83.40;;;50.55;;
32399;SDS011;45045;45.440;9.178;2023-02-15T04:21:32;79.93;;;49.22;;
32399;SDS011;45045;45.440;9.178;2023-02-15T04:24:17;79.82;;;50.47;;
32399;SDS011;45045;45.440;9.178;2023-02-15T04:27:02;78.68;;;48.28;;
32399;SDS011;45045;45.440;9.178;2023-02-15T04:29:29;82.55;;;47.70;;
32399;SDS011;45045;45.440;9.178;2023-02-15T04:31:56;84.72;;;50.55;;
32399;SDS011;45045;45.440;9.178;2023-02-15T04:34:24;79.75;;;49.17;;
32399;SDS011;45045;45.440;9.178;2023-02-15T04:36:50;86.45;;;51.13;;
32399;SDS011;45045;45.440;9.178;2023-02-15T04:39:16;83.10;;;50.67;;
32399;SDS011;45045;45.440;9.178;2023-02-15T04:41:43;79.50;;;50.83;;
32399;SDS011;45045;45.440;9.178;2023-02-15T04:44:09;78.82;;;50.03;;
32399;SDS011;45045;45.440;9.178;2023-02-15T04:46:35;84.93;;;50.33;;
32399;SDS011;45045;45.440;9.178;2023-02-15T04:49:01;83.35;;;51.38;;
32399;SDS011;45045;45.440;9.178;2023-02-15T04:51:27;79.85;;;49.55;;
32399;SDS011;45045;45.440;9.178;2023-02-15T04:53:53;80.75;;;50.17;;
32399;SDS011;45045;45.440;9.178;2023-02-15T04:56:19;80.90;;;49.47;;
32399;SDS011;45045;45.440;9.178;2023-02-15T04:58:45;82.47;;;51.00;;
32399;SDS011;45045;45.440;9.178;2023-02-15T05:01:12;79.85;;;48.78;;
32399;SDS011;45045;45.440;9.178;2023-02-15T05:03:38;80.60;;;49.25;;
32399;SDS011;45045;45.440;9.178;2023-02-15T05:06:04;78.03;;;49.47;;
32399;SDS011;45045;45.440;9.178;2023-02-15T05:08:30;82.70;;;50.05;;
32399;SDS011;45045;45.440;9.178;2023-02-15T05:10:56;83.30;;;50.53;;
32399;SDS011;45045;45.440;9.178;2023-02-15T05:13:22;83.85;;;49.55;;
32399;SDS011;45045;45.440;9.178;2023-02-15T05:15:50;80.65;;;50.72;;
32399;SDS011;45045;45.440;9.178;2023-02-15T05:18:17;78.10;;;49.10;;
32399;SDS011;45045;45.440;9.178;2023-02-15T05:20:44;75.97;;;49.20;;
32399;SDS011;45045;45.440;9.178;2023-02-15T05:23:10;84.32;;;50.38;;
32399;SDS011;45045;45.440;9.178;2023-02-15T05:25:36;84.18;;;49.55;;
32399;SDS011;45045;45.440;9.178;2023-02-15T05:28:20;79.60;;;48.63;;
32399;SDS011;45045;45.440;9.178;2023-02-15T05:33:16;83.68;;;50.15;;
32399;SDS011;45045;45.440;9.178;2023-02-15T05:35:42;80.15;;;49.55;;
32399;SDS011;45045;45.440;9.178;2023-02-15T05:38:08;83.55;;;50.38;;
32399;SDS011;45045;45.440;9.178;2023-02-15T05:40:34;78.82;;;50.10;;
32399;SDS011;45045;45.440;9.178;2023-02-15T05:43:00;78.70;;;49.05;;
32399;SDS011;45045;45.440;9.178;2023-02-15T05:45:26;82.70;;;50.97;;
32399;SDS011;45045;45.440;9.178;2023-02-15T05:47:51;84.18;;;51.30;;
32399;SDS011;45045;45.440;9.178;2023-02-15T05:50:18;80.35;;;50.60;;
32399;SDS011;45045;45.440;9.178;2023-02-15T05:52:43;87.47;;;49.88;;
32399;SDS011;45045;45.440;9.178;2023-02-15T05:55:09;85.07;;;50.00;;
32399;SDS011;45045;45.440;9.178;2023-02-15T05:57:35;144.25;;;93.22;;
32399;SDS011;45045;45.440;9.178;2023-02-15T06:00:04;99.35;;;60.38;;
32399;SDS011;45045;45.440;9.178;2023-02-15T06:02:34;84.20;;;52.00;;
32399;SDS011;45045;45.440;9.178;2023-02-15T06:05:01;83.13;;;49.65;;
32399;SDS011;45045;45.440;9.178;2023-02-15T06:07:26;81.25;;;50.35;;
32399;SDS011;45045;45.440;9.178;2023-02-15T06:09:52;81.95;;;49.95;;
32399;SDS011;45045;45.440;9.178;2023-02-15T06:12:18;84.30;;;50.45;;
32399;SDS011;45045;45.440;9.178;2023-02-15T06:14:43;85.18;;;52.47;;
32399;SDS011;45045;45.440;9.178;2023-02-15T06:17:09;78.50;;;49.33;;
32399;SDS011;45045;45.440;9.178;2023-02-15T06:19:34;80.28;;;50.15;;
32399;SDS011;45045;45.440;9.178;2023-02-15T06:22:00;79.78;;;49.20;;
32399;SDS011;45045;45.440;9.178;2023-02-15T06:24:26;82.88;;;50.88;;
32399;SDS011;45045;45.440;9.178;2023-02-15T06:26:51;85.07;;;50.65;;
32399;SDS011;45045;45.440;9.178;2023-02-15T06:29:17;85.68;;;51.08;;
32399;SDS011;45045;45.440;9.178;2023-02-15T06:31:43;99.75;;;61.33;;
32399;SDS011;45045;45.440;9.178;2023-02-15T06:34:08;95.35;;;59.90;;
32399;SDS011;45045;45.440;9.178;2023-02-15T06:36:34;87.07;;;52.17;;
32399;SDS011;45045;45.440;9.178;2023-02-15T06:39:00;81.45;;;52.72;;
32399;SDS011;45045;45.440;9.178;2023-02-15T06:41:26;84.60;;;52.65;;
32399;SDS011;45045;45.440;9.178;2023-02-15T06:43:52;82.25;;;50.72;;
32399;SDS011;45045;45.440;9.178;2023-02-15T06:46:18;80.32;;;50.40;;
32399;SDS011;45045;45.440;9.178;2023-02-15T06:48:43;78.28;;;49.45;;
32399;SDS011;45045;45.440;9.178;2023-02-15T06:51:09;81.47;;;51.55;;
32399;SDS011;45045;45.440;9.178;2023-02-15T06:53:35;83.40;;;50.17;;
32399;SDS011;45045;45.440;9.178;2023-02-15T06:56:01;84.57;;;50.55;;
32399;SDS011;45045;45.440;9.178;2023-02-15T06:58:40;80.72;;;50.90;;
32399;SDS011;45045;45.440;9.178;2023-02-15T07:01:07;77.90;;;49.70;;
32399;SDS011;45045;45.440;9.178;2023-02-15T07:03:34;78.45;;;50.78;;
32399;SDS011;45045;45.440;9.178;2023-02-15T07:06:01;83.30;;;50.90;;
32399;SDS011;45045;45.440;9.178;2023-02-15T07:08:30;77.18;;;47.78;;
32399;SDS011;45045;45.440;9.178;2023-02-15T07:10:56;80.38;;;47.78;;
32399;SDS011;45045;45.440;9.178;2023-02-15T07:13:42;76.00;;;47.63;;
32399;SDS011;45045;45.440;9.178;2023-02-15T07:16:08;79.78;;;47.80;;
32399;SDS011;45045;45.440;9.178;2023-02-15T07:18:34;80.55;;;48.58;;
32399;SDS011;45045;45.440;9.178;2023-02-15T07:21:00;76.25;;;47.88;;
32399;SDS011;45045;45.440;9.178;2023-02-15T07:23:26;75.57;;;48.35;;
32399;SDS011;45045;45.440;9.178;2023-02-15T07:25:59;76.88;;;48.58;;
32399;SDS011;45045;45.440;9.178;2023-02-15T07:28:25;77.35;;;48.28;;
32399;SDS011;45045;45.440;9.178;2023-02-15T07:30:51;76.63;;;47.03;;
32399;SDS011;45045;45.440;9.178;2023-02-15T07:33:17;72.75;;;45.92;;
32399;SDS011;45045;45.440;9.178;2023-02-15T07:38:15;76.28;;;48.38;;
32399;SDS011;45045;45.440;9.178;2023-02-15T07:40:41;80.65;;;49.70;;
32399;SDS011;45045;45.440;9.178;2023-02-15T07:43:07;81.60;;;49.42;;
32399;SDS011;45045;45.440;9.178;2023-02-15T07:45:33;82.07;;;49.45;;
32399;SDS011;45045;45.440;9.178;2023-02-15T07:48:02;79.80;;;48.25;;
32399;SDS011;45045;45.440;9.178;2023-02-15T07:50:28;74.50;;;48.13;;
32399;SDS011;45045;45.440;9.178;2023-02-15T07:52:54;75.07;;;48.47;;
32399;SDS011;45045;45.440;9.178;2023-02-15T07:55:20;73.47;;;48.63;;
32399;SDS011;45045;45.440;9.178;2023-02-15T07:57:48;74.78;;;48.22;;
32399;SDS011;45045;45.440;9.178;2023-02-15T08:00:15;81.07;;;48.03;;
32399;SDS011;45045;45.440;9.178;2023-02-15T08:02:50;73.15;;;47.92;;
32399;SDS011;45045;45.440;9.178;2023-02-15T08:05:36;105.47;;;50.90;;
32399;SDS011;45045;45.440;9.178;2023-02-15T08:08:03;102.70;;;51.35;;
32399;SDS011;45045;45.440;9.178;2023-02-15T08:10:30;78.00;;;48.58;;
32399;SDS011;45045;45.440;9.178;2023-02-15T08:13:16;77.78;;;49.25;;
32399;SDS011;45045;45.440;9.178;2023-02-15T08:15:51;79.07;;;48.50;;
32399;SDS011;45045;45.440;9.178;2023-02-15T08:18:17;76.88;;;47.08;;
32399;SDS011;45045;45.440;9.178;2023-02-15T08:20:42;79.25;;;49.03;;
32399;SDS011;45045;45.440;9.178;2023-02-15T08:23:14;80.80;;;48.85;;
32399;SDS011;45045;45.440;9.178;2023-02-15T08:25:40;73.78;;;48.05;;
32399;SDS011;45045;45.440;9.178;2023-02-15T08:28:06;73.15;;;49.95;;
32399;SDS011;45045;45.440;9.178;2023-02-15T08:30:31;76.00;;;49.80;;
32399;SDS011;45045;45.440;9.178;2023-02-15T08:32:57;76.15;;;49.30;;
32399;SDS011;45045;45.440;9.178;2023-02-15T08:35:24;71.28;;;48.63;;
32399;SDS011;45045;45.440;9.178;2023-02-15T08:37:49;79.32;;;49.83;;
32399;SDS011;45045;45.440;9.178;2023-02-15T08:40:16;77.78;;;49.33;;
32399;SDS011;45045;45.440;9.178;2023-02-15T08:42:41;73.00;;;47.90;;
32399;SDS011;45045;45.440;9.178;2023-02-15T08:45:07;84.30;;;49.63;;
32399;SDS011;45045;45.440;9.178;2023-02-15T08:47:33;74.85;;;50.80;;
32399;SDS011;45045;45.440;9.178;2023-02-15T08:49:59;78.13;;;50.38;;
32399;SDS011;45045;45.440;9.178;2023-02-15T08:52:24;73.68;;;51.33;;
32399;SDS011;45045;45.440;9.178;2023-02-15T08:54:50;86.53;;;53.20;;
32399;SDS011;45045;45.440;9.178;2023-02-15T08:57:16;73.68;;;51.80;;
32399;SDS011;45045;45.440;9.178;2023-02-15T08:59:41;76.35;;;53.97;;
32399;SDS011;45045;45.440;9.178;2023-02-15T09:02:09;76.20;;;52.35;;
32399;SDS011;45045;45.440;9.178;2023-02-15T09:04:35;81.45;;;54.17;;
32399;SDS011;45045;45.440;9.178;2023-02-15T09:07:00;80.70;;;54.40;;
32399;SDS011;45045;45.440;9.178;2023-02-15T09:09:29;78.82;;;53.58;;
32399;SDS011;45045;45.440;9.178;2023-02-15T09:11:56;119.80;;;57.22;;
32399;SDS011;45045;45.440;9.178;2023-02-15T09:14:21;78.53;;;53.38;;
32399;SDS011;45045;45.440;9.178;2023-02-15T09:16:49;143.88;;;60.65;;
32399;SDS011;45045;45.440;9.178;2023-02-15T09:19:17;91.55;;;54.10;;
32399;SDS011;45045;45.440;9.178;2023-02-15T09:21:44;82.93;;;53.80;;
32399;SDS011;45045;45.440;9.178;2023-02-15T09:24:11;95.35;;;55.63;;
32399;SDS011;45045;45.440;9.178;2023-02-15T09:26:39;96.65;;;55.08;;
32399;SDS011;45045;45.440;9.178;2023-02-15T09:29:07;79.45;;;55.38;;
32399;SDS011;45045;45.440;9.178;2023-02-15T09:31:38;78.43;;;54.47;;
32399;SDS011;45045;45.440;9.178;2023-02-15T09:34:06;99.30;;;54.80;;
32399;SDS011;45045;45.440;9.178;2023-02-15T09:36:33;79.13;;;55.58;;
32399;SDS011;45045;45.440;9.178;2023-02-15T09:39:13;81.47;;;55.20;;
32399;SDS011;45045;45.440;9.178;2023-02-15T09:47:27;84.25;;;56.08;;
32399;SDS011;45045;45.440;9.178;2023-02-15T09:50:18;84.03;;;56.92;;
32399;SDS011;45045;45.440;9.178;2023-02-15T10:20:02;90.85;;;60.58;;
32399;SDS011;45045;45.440;9.178;2023-02-15T10:28:17;87.28;;;57.53;;
32399;SDS011;45045;45.440;9.178;2023-02-15T10:30:49;82.35;;;56.30;;
32399;SDS011;45045;45.440;9.178;2023-02-15T10:36:02;83.37;;;56.17;;
32399;SDS011;45045;45.440;9.178;2023-02-15T10:38:54;80.15;;;58.00;;
32399;SDS011;45045;45.440;9.178;2023-02-15T10:41:36;82.38;;;57.42;;
32399;SDS011;45045;45.440;9.178;2023-02-15T10:58:11;83.47;;;56.92;;
32399;SDS011;45045;45.440;9.178;2023-02-15T11:06:32;79.85;;;56.88;;
32399;SDS011;45045;45.440;9.178;2023-02-15T11:09:07;79.32;;;53.85;;
32399;SDS011;45045;45.440;9.178;2023-02-15T11:11:36;82.10;;;54.80;;
32399;SDS011;45045;45.440;9.178;2023-02-15T11:17:01;111.45;;;78.25;;
32399;SDS011;45045;45.440;9.178;2023-02-15T11:19:33;77.97;;;54.45;;
32399;SDS011;45045;45.440;9.178;2023-02-15T11:22:04;74.63;;;53.05;;
32399;SDS011;45045;45.440;9.178;2023-02-15T11:24:32;79.35;;;56.20;;
32399;SDS011;45045;45.440;9.178;2023-02-15T11:27:10;81.88;;;56.58;;
32399;SDS011;45045;45.440;9.178;2023-02-15T11:29:58;72.35;;;52.80;;
32399;SDS011;45045;45.440;9.178;2023-02-15T11:37:51;83.57;;;54.72;;
32399;SDS011;45045;45.440;9.178;2023-02-15T11:42:45;82.63;;;53.55;;
32399;SDS011;45045;45.440;9.178;2023-02-15T11:50:24;207.95;;;149.40;;
32399;SDS011;45045;45.440;9.178;2023-02-15T11:52:52;123.45;;;90.90;;
32399;SDS011;45045;45.440;9.178;2023-02-15T11:55:25;135.77;;;94.78;;
32399;SDS011;45045;45.440;9.178;2023-02-15T12:00:31;78.38;;;54.22;;
32399;SDS011;45045;45.440;9.178;2023-02-15T12:06:20;122.88;;;86.05;;
32399;SDS011;45045;45.440;9.178;2023-02-15T12:11:47;109.93;;;75.53;;
32399;SDS011;45045;45.440;9.178;2023-02-15T12:14:13;144.52;;;103.22;;
32399;SDS011;45045;45.440;9.178;2023-02-15T12:19:20;83.80;;;54.97;;
32399;SDS011;45045;45.440;9.178;2023-02-15T12:21:53;90.38;;;57.83;;
32399;SDS011;45045;45.440;9.178;2023-02-15T12:24:38;84.90;;;54.88;;
32399;SDS011;45045;45.440;9.178;2023-02-15T12:27:15;84.93;;;57.03;;
32399;SDS011;45045;45.440;9.178;2023-02-15T12:29:53;81.22;;;57.33;;
32399;SDS011;45045;45.440;9.178;2023-02-15T12:32:25;82.28;;;56.88;;
32399;SDS011;45045;45.440;9.178;2023-02-15T12:35:24;82.95;;;56.10;;
32399;SDS011;45045;45.440;9.178;2023-02-15T12:37:58;90.45;;;62.33;;
32399;SDS011;45045;45.440;9.178;2023-02-15T12:40:35;99.25;;;64.85;;
32399;SDS011;45045;45.440;9.178;2023-02-15T12:43:03;85.47;;;60.88;;
32399;SDS011;45045;45.440;9.178;2023-02-15T12:45:34;74.60;;;51.22;;
32399;SDS011;45045;45.440;9.178;2023-02-15T12:48:09;87.63;;;53.45;;
32399;SDS011;45045;45.440;9.178;2023-02-15T12:50:44;74.75;;;50.17;;
32399;SDS011;45045;45.440;9.178;2023-02-15T12:55:49;74.50;;;50.60;;
32399;SDS011;45045;45.440;9.178;2023-02-15T12:58:22;77.28;;;50.08;;
32399;SDS011;45045;45.440;9.178;2023-02-15T13:06:27;72.20;;;50.03;;
32399;SDS011;45045;45.440;9.178;2023-02-15T13:08:56;82.55;;;52.75;;
32399;SDS011;45045;45.440;9.178;2023-02-15T13:11:30;77.90;;;52.55;;
32399;SDS011;45045;45.440;9.178;2023-02-15T13:14:00;78.45;;;50.63;;
32399;SDS011;45045;45.440;9.178;2023-02-15T13:16:37;77.13;;;50.95;;
32399;SDS011;45045;45.440;9.178;2023-02-15T13:19:28;79.38;;;49.72;;
32399;SDS011;45045;45.440;9.178;2023-02-15T13:22:14;76.55;;;49.42;;
32399;SDS011;45045;45.440;9.178;2023-02-15T13:24:54;74.50;;;47.58;;
32399;SDS011;45045;45.440;9.178;2023-02-15T13:27:24;75.75;;;47.53;;
32399;SDS011;45045;45.440;9.178;2023-02-15T13:30:03;82.30;;;49.33;;
32399;SDS011;45045;45.440;9.178;2023-02-15T13:32:58;76.15;;;48.13;;
32399;SDS011;45045;45.440;9.178;2023-02-15T13:35:34;80.72;;;49.88;;
32399;SDS011;45045;45.440;9.178;2023-02-15T13:38:15;75.93;;;48.40;;
32399;SDS011;45045;45.440;9.178;2023-02-15T13:41:12;73.63;;;48.97;;
32399;SDS011;45045;45.440;9.178;2023-02-15T13:43:51;76.25;;;49.33;;
32399;SDS011;45045;45.440;9.178;2023-02-15T13:51:42;68.60;;;45.15;;
32399;SDS011;45045;45.440;9.178;2023-02-15T14:05:27;58.67;;;38.45;;
32399;SDS011;45045;45.440;9.178;2023-02-15T14:08:12;59.03;;;39.05;;
32399;SDS011;45045;45.440;9.178;2023-02-15T14:13:36;65.82;;;41.50;;
32399;SDS011;45045;45.440;9.178;2023-02-15T14:19:05;67.10;;;43.55;;
32399;SDS011;45045;45.440;9.178;2023-02-15T14:32:10;53.33;;;34.20;;
32399;SDS011;45045;45.440;9.178;2023-02-15T14:34:46;51.00;;;34.30;;
32399;SDS011;45045;45.440;9.178;2023-02-15T14:37:19;49.83;;;32.25;;
32399;SDS011;45045;45.440;9.178;2023-02-15T14:40:23;48.88;;;31.65;;
32399;SDS011;45045;45.440;9.178;2023-02-15T14:48:50;51.30;;;30.52;;
32399;SDS011;45045;45.440;9.178;2023-02-15T14:54:07;49.42;;;31.55;;
32399;SDS011;45045;45.440;9.178;2023-02-15T14:56:34;55.28;;;31.50;;
32399;SDS011;45045;45.440;9.178;2023-02-15T14:59:13;47.92;;;30.60;;
32399;SDS011;45045;45.440;9.178;2023-02-15T15:01:41;46.78;;;29.08;;
32399;SDS011;45045;45.440;9.178;2023-02-15T15:04:22;46.72;;;29.98;;
32399;SDS011;45045;45.440;9.178;2023-02-15T15:06:57;48.33;;;29.20;;
32399;SDS011;45045;45.440;9.178;2023-02-15T15:09:33;47.83;;;29.33;;
32399;SDS011;45045;45.440;9.178;2023-02-15T15:14:45;45.67;;;28.27;;
32399;SDS011;45045;45.440;9.178;2023-02-15T15:19:59;47.03;;;28.92;;
32399;SDS011;45045;45.440;9.178;2023-02-15T15:22:45;45.83;;;27.13;;
32399;SDS011;45045;45.440;9.178;2023-02-15T15:28:07;47.47;;;28.05;;
32399;SDS011;45045;45.440;9.178;2023-02-15T15:33:01;43.67;;;26.67;;
32399;SDS011;45045;45.440;9.178;2023-02-15T15:41:43;46.22;;;27.42;;
32399;SDS011;45045;45.440;9.178;2023-02-15T15:44:28;43.22;;;26.88;;
32399;SDS011;45045;45.440;9.178;2023-02-15T15:47:11;43.50;;;25.58;;
32399;SDS011;45045;45.440;9.178;2023-02-15T15:49:58;44.25;;;25.40;;
32399;SDS011;45045;45.440;9.178;2023-02-15T15:52:24;42.20;;;25.40;;
32399;SDS011;45045;45.440;9.178;2023-02-15T15:54:56;42.30;;;26.15;;
32399;SDS011;45045;45.440;9.178;2023-02-15T15:57:34;45.63;;;26.52;;
32399;SDS011;45045;45.440;9.178;2023-02-15T16:00:04;39.85;;;25.27;;
32399;SDS011;45045;45.440;9.178;2023-02-15T16:02:50;45.17;;;27.10;;
32399;SDS011;45045;45.440;9.178;2023-02-15T16:05:17;46.17;;;26.80;;
32399;SDS011;45045;45.440;9.178;2023-02-15T16:07:43;49.83;;;28.48;;
32399;SDS011;45045;45.440;9.178;2023-02-15T16:10:19;48.53;;;27.33;;
32399;SDS011;45045;45.440;9.178;2023-02-15T16:12:45;48.10;;;28.13;;
32399;SDS011;45045;45.440;9.178;2023-02-15T16:15:14;45.65;;;27.08;;
32399;SDS011;45045;45.440;9.178;2023-02-15T16:17:41;48.15;;;28.02;;
32399;SDS011;45045;45.440;9.178;2023-02-15T16:20:23;47.03;;;27.25;;
32399;SDS011;45045;45.440;9.178;2023-02-15T16:22:52;49.55;;;27.85;;
32399;SDS011;45045;45.440;9.178;2023-02-15T16:25:54;43.42;;;27.02;;
32399;SDS011;45045;45.440;9.178;2023-02-15T16:28:37;46.28;;;27.60;;
32399;SDS011;45045;45.440;9.178;2023-02-15T16:31:10;45.50;;;26.67;;
32399;SDS011;45045;45.440;9.178;2023-02-15T16:33:38;46.60;;;27.63;;
32399;SDS011;45045;45.440;9.178;2023-02-15T16:36:05;44.80;;;27.48;;
32399;SDS011;45045;45.440;9.178;2023-02-15T16:41:07;43.05;;;27.45;;
32399;SDS011;45045;45.440;9.178;2023-02-15T16:43:36;47.92;;;28.70;;
32399;SDS011;45045;45.440;9.178;2023-02-15T16:46:05;48.25;;;29.05;;
32399;SDS011;45045;45.440;9.178;2023-02-15T16:48:35;49.50;;;29.30;;
32399;SDS011;45045;45.440;9.178;2023-02-15T16:51:05;51.28;;;29.77;;
32399;SDS011;45045;45.440;9.178;2023-02-15T16:53:31;47.08;;;29.27;;
32399;SDS011;45045;45.440;9.178;2023-02-15T16:55:58;47.33;;;30.40;;
32399;SDS011;45045;45.440;9.178;2023-02-15T16:58:35;52.67;;;30.00;;
32399;SDS011;45045;45.440;9.178;2023-02-15T17:01:08;50.78;;;30.17;;
32399;SDS011;45045;45.440;9.178;2023-02-15T17:03:37;56.42;;;31.23;;
32399;SDS011;45045;45.440;9.178;2023-02-15T17:06:04;52.60;;;30.50;;
32399;SDS011;45045;45.440;9.178;2023-02-15T17:08:48;51.38;;;31.40;;
32399;SDS011;45045;45.440;9.178;2023-02-15T17:16:28;55.08;;;32.70;;
32399;SDS011;45045;45.440;9.178;2023-02-15T17:18:58;55.00;;;29.98;;
32399;SDS011;45045;45.440;9.178;2023-02-15T17:21:28;56.42;;;31.83;;
32399;SDS011;45045;45.440;9.178;2023-02-15T17:23:58;55.88;;;32.38;;
32399;SDS011;45045;45.440;9.178;2023-02-15T17:26:35;71.70;;;44.45;;
32399;SDS011;45045;45.440;9.178;2023-02-15T17:31:52;57.97;;;33.33;;
32399;SDS011;45045;45.440;9.178;2023-02-15T17:37:13;54.80;;;31.20;;
32399;SDS011;45045;45.440;9.178;2023-02-15T17:40:25;59.40;;;32.78;;
32399;SDS011;45045;45.440;9.178;2023-02-15T17:42:52;58.00;;;31.80;;
32399;SDS011;45045;45.440;9.178;2023-02-15T17:45:18;56.90;;;32.60;;
32399;SDS011;45045;45.440;9.178;2023-02-15T17:47:45;54.05;;;32.38;;
32399;SDS011;45045;45.440;9.178;2023-02-15T17:50:17;57.08;;;31.75;;
32399;SDS011;45045;45.440;9.178;2023-02-15T17:52:48;61.42;;;37.22;;
32399;SDS011;45045;45.440;9.178;2023-02-15T17:55:16;64.07;;;38.45;;
32399;SDS011;45045;45.440;9.178;2023-02-15T17:57:59;63.28;;;36.65;;
32399;SDS011;45045;45.440;9.178;2023-02-15T18:00:27;60.95;;;35.50;;
32399;SDS011;45045;45.440;9.178;2023-02-15T18:03:12;60.13;;;34.67;;
32399;SDS011;45045;45.440;9.178;2023-02-15T18:05:57;62.58;;;36.72;;
32399;SDS011;45045;45.440;9.178;2023-02-15T18:08:41;65.50;;;34.83;;
32399;SDS011;45045;45.440;9.178;2023-02-15T18:11:26;62.80;;;35.15;;
32399;SDS011;45045;45.440;9.178;2023-02-15T18:14:08;68.95;;;43.08;;
32399;SDS011;45045;45.440;9.178;2023-02-15T18:16:35;64.20;;;36.17;;
32399;SDS011;45045;45.440;9.178;2023-02-15T18:19:05;62.92;;;35.60;;